Time;durP1;ratioP1;P1;durP2;ratioP2;P2;SDS_P1;SDS_P2;PMS_P1;PMS_P2;Temp;Humidity;BMP_temperature;BMP_pressure;BME280_temperature;BME280_humidity;BME280_pressure;Samples;Min_cycle;Max_cycle;Signal;HPM_P1;HPM_P2
2021/05/26 00:02:11;;;;;;;2.92;1.23;;;10.10;55.00;;;;;;5088223;28;20221;-88
2021/05/26 00:04:38;;;;;;;2.00;1.00;;;10.10;55.80;;;;;;5088736;28;20197;-88
2021/05/26 00:07:04;;;;;;;2.47;0.98;;;10.10;54.80;;;;;;5088229;28;20740;-87
2021/05/26 00:09:30;;;;;;;2.78;1.10;;;10.10;55.10;;;;;;5088990;28;20193;-88
2021/05/26 00:11:57;;;;;;;3.03;1.27;;;10.10;55.40;;;;;;5087816;28;20225;-88
2021/05/26 00:14:23;;;;;;;1.67;1.10;;;10.10;55.80;;;;;;5088780;28;20288;-88
2021/05/26 00:16:50;;;;;;;1.77;1.40;;;10.20;56.10;;;;;;5087968;28;20208;-88
2021/05/26 00:19:17;;;;;;;1.90;1.10;;;10.20;58.20;;;;;;5088663;28;20209;-88
2021/05/26 00:21:43;;;;;;;2.15;1.35;;;10.20;57.30;;;;;;5088046;28;20264;-89
2021/05/26 00:24:10;;;;;;;1.80;1.15;;;10.20;56.00;;;;;;5088205;28;20268;-88
2021/05/26 00:26:36;;;;;;;1.73;1.13;;;10.20;57.00;;;;;;5087372;28;20203;-88
2021/05/26 00:29:03;;;;;;;1.65;1.10;;;10.20;56.80;;;;;;5087938;28;20224;-88
2021/05/26 00:31:30;;;;;;;2.88;1.00;;;10.10;57.20;;;;;;5088323;28;20245;-88
2021/05/26 00:33:56;;;;;;;1.73;0.93;;;10.10;57.90;;;;;;5088330;28;20233;-88
2021/05/26 00:36:24;;;;;;;2.10;1.23;;;10.10;60.00;;;;;;5088574;28;20193;-87
2021/05/26 00:38:50;;;;;;;1.48;1.13;;;10.10;60.00;;;;;;5092795;28;20232;-88
2021/05/26 00:41:16;;;;;;;3.58;1.40;;;10.10;60.30;;;;;;5096591;28;20265;-88
2021/05/26 00:43:43;;;;;;;1.42;1.02;;;10.00;59.50;;;;;;5087216;28;20233;-88
2021/05/26 00:46:09;;;;;;;1.67;0.98;;;9.90;62.90;;;;;;5086312;28;20665;-89
2021/05/26 00:48:36;;;;;;;2.45;1.10;;;10.00;60.90;;;;;;5086764;28;20223;-88
2021/05/26 00:51:03;;;;;;;2.92;1.13;;;10.00;60.90;;;;;;5087785;28;20201;-87
2021/05/26 00:53:31;;;;;;;2.33;1.30;;;10.00;61.80;;;;;;5084392;28;20236;-88
2021/05/26 00:55:58;;;;;;;1.42;1.02;;;9.90;63.50;;;;;;5081618;28;20377;-88
2021/05/26 00:58:25;;;;;;;1.55;1.10;;;9.90;63.30;;;;;;5070800;28;20268;-88
2021/05/26 01:00:51;;;;;;;1.88;1.10;;;9.90;65.00;;;;;;5070088;28;20212;-87
2021/05/26 01:03:17;;;;;;;3.97;1.10;;;9.80;64.40;;;;;;5085896;28;20217;-88
2021/05/26 01:05:44;;;;;;;3.17;1.20;;;9.80;66.60;;;;;;5086455;28;20213;-89
2021/05/26 01:08:11;;;;;;;1.35;0.93;;;9.70;65.00;;;;;;5084898;28;20219;-88
2021/05/26 01:10:38;;;;;;;2.55;1.38;;;9.60;66.60;;;;;;5082768;28;20201;-89
2021/05/26 01:13:05;;;;;;;2.05;1.00;;;9.40;68.20;;;;;;5089196;28;20311;-89
2021/05/26 01:15:31;;;;;;;2.25;0.90;;;9.40;70.50;;;;;;5083502;28;20244;-87
2021/05/26 01:17:58;;;;;;;2.88;0.95;;;9.40;74.30;;;;;;5086517;28;20235;-88
2021/05/26 01:20:26;;;;;;;1.75;1.08;;;9.40;74.30;;;;;;5087033;28;20197;-88
2021/05/26 01:22:57;;;;;;;2.28;1.10;;;9.40;74.30;;;;;;5085733;28;20229;-89
2021/05/26 01:25:25;;;;;;;1.95;1.13;;;9.40;74.30;;;;;;5072975;28;20235;-87
2021/05/26 01:27:51;;;;;;;2.08;1.17;;;9.30;74.20;;;;;;5085332;28;20235;-90
2021/05/26 01:30:19;;;;;;;3.97;1.00;;;9.20;74.10;;;;;;5089697;28;20199;-88
2021/05/26 01:32:47;;;;;;;1.15;0.93;;;9.20;74.10;;;;;;5092285;28;20251;-87
2021/05/26 01:35:17;;;;;;;3.47;1.00;;;9.20;74.20;;;;;;5083933;28;20221;-87
2021/05/26 01:37:45;;;;;;;3.00;1.10;;;9.20;74.10;;;;;;5077899;28;20281;-87
2021/05/26 01:40:16;;;;;;;1.55;1.20;;;9.10;74.00;;;;;;5092447;28;20189;-89
2021/05/26 01:42:45;;;;;;;1.70;0.98;;;9.00;73.90;;;;;;5091854;28;20276;-87
2021/05/26 01:45:13;;;;;;;2.58;0.88;;;8.90;73.80;;;;;;5092589;28;20215;-87
2021/05/26 01:47:39;;;;;;;1.95;1.10;;;8.80;74.90;;;;;;5092248;28;20217;-87
2021/05/26 01:50:43;;;;;;;4.03;1.30;;;8.70;76.50;;;;;;5092334;28;20261;-88
2021/05/26 01:53:11;;;;;;;1.88;1.20;;;8.60;77.70;;;;;;5091797;28;20300;-88
2021/05/26 01:55:39;;;;;;;2.60;1.07;;;8.60;78.50;;;;;;5092475;28;20231;-87
2021/05/26 01:58:05;;;;;;;3.43;1.23;;;8.70;79.00;;;;;;5092146;28;20297;-87
2021/05/26 02:00:41;;;;;;;2.92;1.13;;;8.60;79.30;;;;;;5092616;28;20193;-87
2021/05/26 02:03:07;;;;;;;2.07;1.10;;;8.60;80.40;;;;;;5091556;28;20239;-86
2021/05/26 02:05:34;;;;;;;1.08;1.00;;;8.60;79.30;;;;;;5092288;28;20209;-87
2021/05/26 02:08:01;;;;;;;3.20;1.17;;;8.60;80.00;;;;;;5091540;28;20225;-87
2021/05/26 02:13:20;;;;;;;1.60;0.90;;;8.50;79.90;;;;;;5097403;28;20202;-87
2021/05/26 02:16:25;;;;;;;1.43;0.83;;;8.50;79.50;;;;;;5091492;28;20213;-87
2021/05/26 02:18:52;;;;;;;1.43;1.00;;;8.40;79.80;;;;;;5080783;28;20285;-87
2021/05/26 02:21:19;;;;;;;3.97;1.07;;;8.30;80.00;;;;;;5091761;28;20224;-87
2021/05/26 02:23:45;;;;;;;1.47;0.90;;;8.20;80.20;;;;;;5092489;28;20297;-87
2021/05/26 02:26:12;;;;;;;2.17;1.00;;;8.20;80.20;;;;;;5091513;28;20264;-87
2021/05/26 02:28:41;;;;;;;1.77;1.00;;;8.20;80.00;;;;;;5091795;28;20241;-87
2021/05/26 02:31:07;;;;;;;1.70;0.90;;;8.20;78.50;;;;;;5091782;28;20189;-87
2021/05/26 02:33:34;;;;;;;1.90;1.10;;;8.20;78.50;;;;;;5090973;28;20251;-87
2021/05/26 02:36:00;;;;;;;2.33;1.53;;;8.20;78.50;;;;;;5091574;28;20197;-87
2021/05/26 02:38:27;;;;;;;2.53;1.07;;;8.20;78.20;;;;;;5080016;28;20283;-87
2021/05/26 02:40:53;;;;;;;4.93;1.30;;;8.20;77.80;;;;;;5073915;28;20205;-87
2021/05/26 02:43:20;;;;;;;2.38;1.00;;;8.10;77.60;;;;;;5090177;28;20261;-87
2021/05/26 02:46:33;;;;;;;1.63;1.20;;;8.20;77.90;;;;;;5091948;28;20264;-87
2021/05/26 02:49:01;;;;;;;1.67;1.13;;;8.20;78.40;;;;;;5090208;28;20232;-87
2021/05/26 02:51:27;;;;;;;2.15;1.20;;;8.20;77.40;;;;;;5091363;28;20212;-87
2021/05/26 03:06:51;;;;;;;2.40;1.25;;;8.20;76.80;;;;;;5146461;22;20262;-87
2021/05/26 03:09:18;;;;;;;2.38;1.10;;;8.20;76.40;;;;;;5089957;28;20318;-87
2021/05/26 03:11:45;;;;;;;2.08;1.33;;;8.20;76.60;;;;;;5089046;28;20205;-89
2021/05/26 03:14:11;;;;;;;1.97;0.97;;;8.20;76.70;;;;;;5074993;28;20613;-89
2021/05/26 03:16:38;;;;;;;1.57;1.07;;;8.20;77.30;;;;;;5088114;28;20221;-87
2021/05/26 03:19:04;;;;;;;2.10;1.00;;;8.20;76.20;;;;;;5088051;28;20214;-86
2021/05/26 03:21:31;;;;;;;1.43;0.90;;;8.20;76.80;;;;;;5088094;28;20193;-87
2021/05/26 03:24:14;;;;;;;3.53;1.03;;;8.10;77.10;;;;;;5088610;28;20278;-87
2021/05/26 03:26:40;;;;;;;1.67;0.97;;;8.20;77.50;;;;;;5087731;28;20232;-87
2021/05/26 03:29:07;;;;;;;2.60;1.10;;;8.10;76.80;;;;;;5088079;28;20197;-87
2021/05/26 03:31:33;;;;;;;1.93;0.90;;;8.10;76.60;;;;;;5088410;28;20219;-87
2021/05/26 03:34:05;;;;;;;1.00;0.90;;;8.20;77.50;;;;;;5088356;28;20233;-86
2021/05/26 03:36:31;;;;;;;1.10;1.00;;;8.20;76.50;;;;;;5087993;28;20193;-86
2021/05/26 03:38:58;;;;;;;2.73;1.10;;;8.20;76.80;;;;;;5086629;28;20225;-86
2021/05/26 03:41:25;;;;;;;1.90;1.00;;;8.30;76.70;;;;;;5088780;28;20193;-86
2021/05/26 03:43:51;;;;;;;2.67;1.00;;;8.30;76.90;;;;;;5076231;28;20233;-87
2021/05/26 03:46:18;;;;;;;1.30;1.00;;;8.30;75.90;;;;;;5088432;28;20368;-86
2021/05/26 03:48:49;;;;;;;1.90;1.40;;;8.40;76.20;;;;;;5089318;28;20293;-87
2021/05/26 03:51:38;;;;;;;1.50;0.90;;;8.50;75.90;;;;;;5089879;28;20191;-86
2021/05/26 04:25:09;;;;;;;1.48;1.00;;;9.20;69.00;;;;;;5066518;28;20293;-88
2021/05/26 04:27:35;;;;;;;3.75;1.23;;;9.30;69.80;;;;;;5067924;28;20226;-88
2021/05/26 04:30:02;;;;;;;1.98;0.90;;;9.30;70.10;;;;;;5064118;28;20259;-87
2021/05/26 04:32:29;;;;;;;1.38;0.90;;;9.30;69.80;;;;;;5057832;28;20232;-88
2021/05/26 04:34:55;;;;;;;2.22;1.10;;;9.40;71.20;;;;;;5068653;28;20228;-88
2021/05/26 04:37:22;;;;;;;2.40;0.90;;;9.40;74.30;;;;;;5051936;28;20232;-88
2021/05/26 04:39:48;;;;;;;2.88;1.30;;;9.50;72.10;;;;;;5066900;28;20194;-89
2021/05/26 04:42:15;;;;;;;3.70;1.10;;;9.50;70.40;;;;;;5068072;28;20286;-88
2021/05/26 04:44:42;;;;;;;1.08;0.90;;;9.60;69.80;;;;;;5053733;28;20274;-88
2021/05/26 04:47:08;;;;;;;1.85;0.98;;;9.70;74.60;;;;;;5062967;28;20311;-87
2021/05/26 04:49:35;;;;;;;4.97;1.40;;;9.80;72.40;;;;;;5058182;28;20276;-87
2021/05/26 04:52:01;;;;;;;4.60;1.50;;;10.00;66.10;;;;;;5058311;28;20271;-88
2021/05/26 04:54:28;;;;;;;4.22;1.20;;;10.00;63.90;;;;;;5057802;28;20226;-87
2021/05/26 04:56:54;;;;;;;3.08;1.27;;;10.00;62.40;;;;;;5060420;28;20224;-88
2021/05/26 04:59:21;;;;;;;3.50;1.20;;;9.90;65.00;;;;;;5067669;28;20221;-88
2021/05/26 05:01:47;;;;;;;5.82;1.20;;;10.00;63.50;;;;;;5066274;28;20284;-88
2021/05/26 05:04:25;;;;;;;4.68;1.23;;;10.10;63.20;;;;;;5067797;28;20194;-88
2021/05/26 05:06:52;;;;;;;3.97;1.65;;;10.20;62.80;;;;;;5071311;28;20253;-88
2021/05/26 05:09:19;;;;;;;3.13;1.20;;;10.20;63.80;;;;;;5071682;28;20201;-88
2021/05/26 05:11:45;;;;;;;2.58;1.20;;;10.30;64.60;;;;;;5068370;28;20201;-88
2021/05/26 05:31:31;;;;;;;1.80;1.00;;;11.50;62.60;;;;;;5075313;28;20190;-88
2021/05/26 05:33:58;;;;;;;1.27;1.00;;;11.60;57.60;;;;;;5071336;28;20227;-88
2021/05/26 05:36:24;;;;;;;1.98;1.10;;;11.70;56.90;;;;;;5072643;28;20202;-90
2021/05/26 05:38:51;;;;;;;2.78;1.02;;;11.80;56.60;;;;;;5071852;28;20240;-88
2021/05/26 05:41:17;;;;;;;2.05;1.08;;;11.90;53.80;;;;;;5071814;28;20195;-88
2021/05/26 05:43:44;;;;;;;3.72;0.90;;;11.90;53.30;;;;;;5071640;28;20237;-88
2021/05/26 05:46:10;;;;;;;1.65;0.90;;;12.00;48.60;;;;;;5074049;28;20280;-88
2021/05/26 05:48:38;;;;;;;3.28;0.80;;;12.10;48.70;;;;;;5071579;28;20249;-88
2021/05/26 05:51:05;;;;;;;1.77;1.02;;;12.40;49.00;;;;;;5071429;28;20259;-89
2021/05/26 05:53:35;;;;;;;1.50;0.90;;;12.50;47.20;;;;;;5082785;22;20226;-88
2021/05/26 05:56:02;;;;;;;1.17;0.95;;;12.60;47.40;;;;;;5072167;28;20603;-88
2021/05/26 05:58:28;;;;;;;2.13;0.80;;;12.50;47.80;;;;;;5070799;28;20238;-87
2021/05/26 06:00:55;;;;;;;3.22;0.85;;;12.60;46.70;;;;;;5072096;28;20227;-87
2021/05/26 06:03:23;;;;;;;2.40;1.00;;;12.80;48.50;;;;;;5071785;28;20285;-88
2021/05/26 06:06:39;;;;;;;1.70;0.80;;;12.90;46.80;;;;;;5073089;28;20182;-88
2021/05/26 06:23:03;;;;;;;2.58;1.00;;;13.60;44.60;;;;;;5081145;28;20216;-88
2021/05/26 06:25:36;;;;;;;2.00;1.15;;;13.90;43.40;;;;;;5093400;28;20182;-89
2021/05/26 06:28:03;;;;;;;2.47;1.20;;;13.90;41.50;;;;;;5067201;28;20256;-88
2021/05/26 06:30:29;;;;;;;4.93;1.20;;;14.00;40.90;;;;;;5072986;28;20201;-89
2021/05/26 06:32:55;;;;;;;2.13;1.00;;;14.00;40.30;;;;;;5072150;28;20297;-88
2021/05/26 06:35:24;;;;;;;3.35;1.08;;;14.00;43.70;;;;;;5072417;28;20675;-88
2021/05/26 06:37:51;;;;;;;1.35;0.93;;;14.00;40.00;;;;;;5072731;28;20239;-88
2021/05/26 06:40:18;;;;;;;1.42;0.93;;;14.20;38.10;;;;;;5073764;28;20232;-88
2021/05/26 06:42:44;;;;;;;2.20;0.90;;;14.30;38.70;;;;;;5055710;28;20222;-88
2021/05/26 06:45:12;;;;;;;1.02;0.93;;;14.50;40.40;;;;;;5070589;28;20209;-88
2021/05/26 06:47:39;;;;;;;1.38;1.10;;;14.60;39.40;;;;;;5068661;28;20232;-88
2021/05/26 06:50:06;;;;;;;2.58;1.10;;;14.80;39.30;;;;;;5069367;28;20206;-88
2021/05/26 06:52:33;;;;;;;1.33;0.98;;;14.80;35.90;;;;;;5068503;28;20708;-89
2021/05/26 06:55:00;;;;;;;2.78;1.10;;;14.90;36.50;;;;;;5056075;28;20313;-89
2021/05/26 06:57:26;;;;;;;2.13;1.20;;;15.20;36.50;;;;;;5047145;28;20291;-90
2021/05/26 06:59:52;;;;;;;1.90;0.90;;;15.60;36.70;;;;;;5054912;28;20226;-88
2021/05/26 07:02:19;;;;;;;1.60;1.00;;;15.80;34.40;;;;;;5050508;28;20712;-90
2021/05/26 07:04:45;;;;;;;1.60;0.90;;;15.70;31.30;;;;;;5051150;28;20198;-89
2021/05/26 07:07:12;;;;;;;1.50;0.85;;;15.70;32.00;;;;;;5055512;28;20248;-88
2021/05/26 07:09:39;;;;;;;1.33;0.80;;;15.70;34.80;;;;;;5056806;28;20645;-89
2021/05/26 07:12:06;;;;;;;1.92;0.88;;;15.70;31.90;;;;;;5046226;28;20244;-90
2021/05/26 07:14:32;;;;;;;1.27;1.10;;;15.70;31.90;;;;;;5043588;28;20267;-88
2021/05/26 07:16:58;;;;;;;2.58;1.02;;;15.50;33.60;;;;;;5049516;28;20209;-88
2021/05/26 07:19:25;;;;;;;2.80;1.05;;;15.40;33.40;;;;;;5050664;28;20628;-88
2021/05/26 07:21:51;;;;;;;1.35;1.17;;;15.60;34.60;;;;;;5048091;28;20197;-90
2021/05/26 07:24:17;;;;;;;1.25;0.70;;;15.60;34.50;;;;;;5059491;28;20620;-88
2021/05/26 07:26:45;;;;;;;0.90;0.85;;;15.90;32.10;;;;;;5057153;28;20194;-88
2021/05/26 07:29:12;;;;;;;2.00;1.10;;;16.20;33.20;;;;;;5055710;28;20611;-88
2021/05/26 07:31:41;;;;;;;2.35;1.02;;;16.50;31.20;;;;;;5066410;28;20205;-89
2021/05/26 07:34:07;;;;;;;2.58;0.70;;;16.90;30.40;;;;;;5066925;28;20252;-88
2021/05/26 07:36:34;;;;;;;2.33;1.02;;;17.30;29.80;;;;;;5060927;28;20206;-88
2021/05/26 07:39:01;;;;;;;1.17;0.90;;;17.20;29.70;;;;;;5063412;28;20229;-89
2021/05/26 07:41:27;;;;;;;1.80;1.00;;;16.90;29.50;;;;;;5059988;28;20194;-88
2021/05/26 07:43:55;;;;;;;1.23;0.90;;;17.00;29.60;;;;;;5065353;28;20241;-89
2021/05/26 07:46:21;;;;;;;1.48;0.82;;;17.50;30.00;;;;;;5065785;28;20653;-88
2021/05/26 07:48:51;;;;;;;1.67;1.00;;;17.90;30.30;;;;;;5065823;28;20237;-89
2021/05/26 07:51:19;;;;;;;1.90;1.10;;;18.40;30.80;;;;;;5050968;28;20205;-87
2021/05/26 07:53:45;;;;;;;1.80;1.30;;;18.60;30.90;;;;;;5064441;28;20222;-90
2021/05/26 07:56:12;;;;;;;2.80;1.30;;;19.00;28.30;;;;;;5060445;28;20222;-88
2021/05/26 07:58:38;;;;;;;1.00;0.90;;;18.70;27.40;;;;;;5057153;28;20214;-86
2021/05/26 08:01:07;;;;;;;4.63;1.00;;;18.70;32.10;;;;;;5069126;28;20198;-86
2021/05/26 08:03:33;;;;;;;1.63;1.00;;;18.90;28.10;;;;;;5069231;28;20307;-86
2021/05/26 08:06:00;;;;;;;3.28;1.00;;;18.80;31.00;;;;;;5060848;28;20285;-87
2021/05/26 08:08:26;;;;;;;3.03;1.00;;;18.50;29.80;;;;;;5067411;28;20217;-89
2021/05/26 08:10:52;;;;;;;1.52;1.10;;;18.50;30.90;;;;;;5065210;28;20212;-89
2021/05/26 08:13:19;;;;;;;3.55;1.00;;;18.70;31.00;;;;;;5065867;28;20221;-86
2021/05/26 08:15:45;;;;;;;1.50;1.10;;;18.30;27.90;;;;;;5057104;28;20219;-87
2021/05/26 08:18:13;;;;;;;1.33;1.00;;;18.10;30.50;;;;;;5065184;28;20225;-87
2021/05/26 08:20:40;;;;;;;3.40;1.13;;;18.20;30.60;;;;;;5066590;28;20224;-87
2021/05/26 08:23:06;;;;;;;2.17;1.00;;;18.20;27.80;;;;;;5064662;28;20244;-88
2021/05/26 08:25:33;;;;;;;2.50;1.00;;;18.20;28.40;;;;;;5058318;28;20209;-87
2021/05/26 08:27:59;;;;;;;2.35;1.20;;;18.30;30.60;;;;;;5058559;28;20222;-88
2021/05/26 08:30:29;;;;;;;2.03;1.10;;;18.20;29.70;;;;;;5072780;28;20194;-87
2021/05/26 08:32:55;;;;;;;2.80;0.90;;;17.90;30.30;;;;;;5067303;28;20370;-87
2021/05/26 08:35:23;;;;;;;1.63;1.20;;;17.40;29.90;;;;;;5068390;28;20226;-87
2021/05/26 08:37:49;;;;;;;1.92;1.05;;;16.90;29.50;;;;;;5052408;28;20256;-88
2021/05/26 08:40:17;;;;;;;2.25;1.15;;;16.80;31.60;;;;;;5062226;28;20237;-88
2021/05/26 08:42:43;;;;;;;1.42;1.00;;;16.60;31.20;;;;;;5065770;28;20236;-87
2021/05/26 08:45:12;;;;;;;1.20;1.00;;;16.60;30.50;;;;;;5060277;28;20202;-87
2021/05/26 08:47:42;;;;;;;1.35;1.00;;;16.50;30.60;;;;;;5063074;28;20233;-89
2021/05/26 08:50:13;;;;;;;1.42;1.00;;;16.50;30.90;;;;;;5059827;28;20255;-89
2021/05/26 08:52:41;;;;;;;5.72;1.27;;;16.70;32.20;;;;;;5060127;28;20222;-89
2021/05/26 08:55:10;;;;;;;2.83;1.15;;;16.70;30.10;;;;;;5062630;28;20236;-90
2021/05/26 08:57:37;;;;;;;2.67;1.00;;;16.60;30.40;;;;;;5060639;28;20255;-91
2021/05/26 09:00:05;;;;;;;1.88;0.95;;;16.80;30.60;;;;;;5045221;28;20236;-90
2021/05/26 09:02:34;;;;;;;2.47;1.33;;;16.70;29.30;;;;;;5054647;28;20221;-89
2021/05/26 09:05:00;;;;;;;1.02;0.73;;;16.70;31.60;;;;;;5064069;28;20263;-89
2021/05/26 09:07:30;;;;;;;2.13;1.15;;;16.70;33.20;;;;;;5059770;28;20224;-90
2021/05/26 09:10:06;;;;;;;2.28;1.00;;;16.70;33.00;;;;;;5049611;28;20213;-89
2021/05/26 09:12:42;;;;;;;1.73;1.20;;;16.90;31.30;;;;;;5043652;28;20714;-88
2021/05/26 09:15:11;;;;;;;2.72;0.93;;;16.90;34.00;;;;;;5059138;28;20229;-88
2021/05/26 09:17:37;;;;;;;2.33;1.10;;;16.90;32.10;;;;;;5057954;28;20320;-90
2021/05/26 09:20:15;;;;;;;2.47;1.02;;;17.00;33.20;;;;;;5058851;28;20202;-89
2021/05/26 09:22:57;;;;;;;3.10;1.35;;;17.00;33.00;;;;;;5048810;28;20269;-89
2021/05/26 09:25:25;;;;;;;3.13;1.05;;;17.20;31.60;;;;;;5059407;28;20198;-90
2021/05/26 09:28:14;;;;;;;1.92;1.13;;;17.20;32.60;;;;;;5061526;28;20229;-90
2021/05/26 09:30:41;;;;;;;1.08;0.90;;;17.00;29.60;;;;;;5045682;28;20658;-91
2021/05/26 09:33:23;;;;;;;1.25;0.88;;;17.20;29.70;;;;;;5064057;28;20691;-92
2021/05/26 09:36:01;;;;;;;2.35;1.23;;;17.20;29.70;;;;;;5050784;28;20225;-90
2021/05/26 09:38:30;;;;;;;3.58;1.33;;;17.40;31.60;;;;;;5061529;28;20224;-89
2021/05/26 09:41:06;;;;;;;2.55;1.30;;;17.20;31.50;;;;;;5052057;28;20206;-89
2021/05/26 09:43:44;;;;;;;1.88;1.20;;;17.40;32.20;;;;;;5063379;28;20228;-89
2021/05/26 09:46:25;;;;;;;4.65;1.50;;;17.30;30.50;;;;;;5064791;28;20213;-89
2021/05/26 09:49:05;;;;;;;3.10;1.10;;;17.60;32.80;;;;;;5065491;28;20237;-89
2021/05/26 09:51:34;;;;;;;1.80;1.08;;;18.00;30.40;;;;;;5045512;28;20618;-89
2021/05/26 09:54:11;;;;;;;2.30;1.10;;;18.50;30.00;;;;;;5042405;28;20231;-88
2021/05/26 09:56:39;;;;;;;1.20;1.10;;;18.70;31.00;;;;;;5060391;28;20198;-87
2021/05/26 09:59:06;;;;;;;1.60;1.17;;;19.30;31.50;;;;;;5069468;28;20229;-87
2021/05/26 10:01:34;;;;;;;2.67;1.13;;;19.90;29.30;;;;;;5071793;28;20716;-87
2021/05/26 10:04:01;;;;;;;4.72;1.10;;;20.00;28.20;;;;;;5071568;28;20297;-87
2021/05/26 10:06:29;;;;;;;1.27;1.00;;;20.20;29.00;;;;;;5072731;28;20258;-87
2021/05/26 10:08:56;;;;;;;3.15;1.10;;;20.10;28.20;;;;;;5062573;28;20261;-87
2021/05/26 10:11:22;;;;;;;1.88;1.15;;;20.20;29.50;;;;;;5065940;28;20197;-87
2021/05/26 10:13:51;;;;;;;1.77;1.08;;;20.50;26.50;;;;;;5069438;28;20202;-90
2021/05/26 10:16:19;;;;;;;4.32;1.35;;;21.00;25.60;;;;;;5064248;28;20219;-90
2021/05/26 10:18:46;;;;;;;2.85;1.40;;;21.30;26.30;;;;;;5062650;28;20217;-87
2021/05/26 10:21:14;;;;;;;2.10;1.40;;;21.30;26.40;;;;;;5055100;28;20206;-88
2021/05/26 10:23:41;;;;;;;3.95;1.40;;;21.20;24.10;;;;;;5053211;28;20589;-88
2021/05/26 10:26:08;;;;;;;3.63;1.40;;;20.90;25.50;;;;;;5041157;28;20199;-88
2021/05/26 10:28:38;;;;;;;3.20;1.25;;;21.20;24.30;;;;;;5041092;28;20296;-89
2021/05/26 10:31:07;;;;;;;5.30;1.35;;;21.30;25.40;;;;;;5057548;28;20204;-88
2021/05/26 10:33:54;;;;;;;1.33;0.88;;;21.80;25.20;;;;;;5042212;28;20803;-85
2021/05/26 10:36:21;;;;;;;2.10;1.20;;;22.60;24.20;;;;;;5041673;28;20230;-85
2021/05/26 10:38:58;;;;;;;2.08;1.30;;;23.20;22.30;;;;;;5042656;28;20221;-84
2021/05/26 10:41:26;;;;;;;4.38;1.60;;;23.30;24.30;;;;;;5042055;28;20281;-84
2021/05/26 10:43:54;;;;;;;3.85;1.42;;;23.10;22.30;;;;;;5048929;28;20225;-84
2021/05/26 10:46:36;;;;;;;2.58;1.25;;;22.90;22.40;;;;;;5045199;28;20209;-84
2021/05/26 10:49:07;;;;;;;2.80;1.30;;;23.00;22.00;;;;;;5040496;28;20218;-85
2021/05/26 10:52:07;;;;;;;2.92;1.55;;;22.70;23.70;;;;;;5047805;28;20293;-86
2021/05/26 10:54:59;;;;;;;2.00;1.38;;;22.10;23.50;;;;;;5052425;28;20222;-88
2021/05/26 10:57:26;;;;;;;5.28;1.50;;;21.40;24.70;;;;;;5060763;28;20294;-86
2021/05/26 11:00:28;;;;;;;4.30;1.70;;;21.10;26.30;;;;;;5060436;28;20202;-88
2021/05/26 11:03:30;;;;;;;2.55;1.40;;;20.80;26.70;;;;;;5065169;28;20264;-86
2021/05/26 11:05:59;;;;;;;2.20;1.33;;;20.10;26.30;;;;;;5048757;28;20204;-86
2021/05/26 11:08:35;;;;;;;3.72;1.63;;;20.20;27.50;;;;;;5066469;28;20225;-85
2021/05/26 11:11:38;;;;;;;1.92;1.27;;;20.40;26.40;;;;;;5064518;28;20198;-86
2021/05/26 11:14:22;;;;;;;5.43;1.52;;;20.60;27.00;;;;;;5043685;28;20229;-85
2021/05/26 11:17:36;;;;;;;5.68;1.98;;;20.30;26.00;;;;;;5051511;28;20217;-85
2021/05/26 11:20:15;;;;;;;3.28;1.30;;;20.50;28.80;;;;;;5068549;28;20198;-87
2021/05/26 11:22:42;;;;;;;5.50;1.40;;;20.40;26.70;;;;;;5068710;28;20315;-87
2021/05/26 11:25:11;;;;;;;5.38;1.52;;;20.70;27.00;;;;;;5069549;28;20237;-86
2021/05/26 11:27:45;;;;;;;6.10;1.60;;;20.40;28.70;;;;;;5067893;28;20226;-86
2021/05/26 11:30:13;;;;;;;3.42;1.50;;;21.00;27.50;;;;;;5057274;28;20661;-88
2021/05/26 11:32:39;;;;;;;1.73;1.27;;;21.00;25.10;;;;;;5051009;28;20600;-88
2021/05/26 11:35:06;;;;;;;2.80;1.38;;;20.70;27.10;;;;;;5053388;28;20907;-88
2021/05/26 11:37:36;;;;;;;3.25;1.20;;;20.70;27.00;;;;;;5045481;28;20701;-87
2021/05/26 11:40:15;;;;;;;3.13;1.38;;;19.90;26.70;;;;;;5048932;28;20206;-87
2021/05/26 11:42:42;;;;;;;2.83;1.40;;;19.70;27.40;;;;;;5043497;28;20217;-88
2021/05/26 11:45:11;;;;;;;4.95;1.40;;;20.40;28.80;;;;;;5055722;28;20198;-88
2021/05/26 11:47:39;;;;;;;3.08;1.75;;;20.80;25.80;;;;;;5051418;28;20703;-88
2021/05/26 11:50:26;;;;;;;4.90;1.50;;;21.50;27.40;;;;;;5048603;28;20217;-88
2021/05/26 11:53:12;;;;;;;3.85;1.50;;;21.60;25.20;;;;;;5036389;28;20221;-89
2021/05/26 11:55:39;;;;;;;1.95;1.45;;;21.10;25.70;;;;;;5047157;28;20310;-85
2021/05/26 11:58:06;;;;;;;2.10;1.30;;;21.10;26.30;;;;;;5054239;28;20230;-86
2021/05/26 12:00:37;;;;;;;4.22;1.38;;;21.10;26.00;;;;;;5050878;28;20202;-88
2021/05/26 12:03:09;;;;;;;3.15;1.27;;;21.10;24.90;;;;;;5053429;28;20223;-87
2021/05/26 12:05:39;;;;;;;6.18;1.48;;;20.70;26.60;;;;;;5051549;28;20214;-88
2021/05/26 12:08:18;;;;;;;2.88;1.30;;;20.70;29.20;;;;;;5069636;28;20296;-88
2021/05/26 12:10:47;;;;;;;3.30;1.20;;;20.60;28.60;;;;;;5070547;28;20201;-87
2021/05/26 12:13:17;;;;;;;2.83;1.10;;;20.40;27.00;;;;;;5069908;28;20256;-87
2021/05/26 12:15:46;;;;;;;3.95;1.30;;;20.50;28.70;;;;;;5059534;28;20221;-87
2021/05/26 12:18:13;;;;;;;1.20;1.10;;;20.60;28.50;;;;;;5051744;28;20226;-87
2021/05/26 12:20:43;;;;;;;5.63;1.40;;;20.50;27.50;;;;;;5067896;28;20205;-87
2021/05/26 12:23:09;;;;;;;4.55;1.38;;;20.10;27.20;;;;;;5059498;28;20248;-88
2021/05/26 12:25:40;;;;;;;3.60;1.40;;;20.20;27.40;;;;;;5065890;28;20198;-87
2021/05/26 12:28:18;;;;;;;4.93;1.20;;;20.40;27.40;;;;;;5067775;28;20238;-88
2021/05/26 12:30:45;;;;;;;1.40;1.00;;;20.50;24.70;;;;;;5067037;28;20204;-87
2021/05/26 12:33:16;;;;;;;2.70;1.20;;;20.30;27.00;;;;;;5055260;28;20239;-90
2021/05/26 12:35:44;;;;;;;4.43;1.70;;;20.00;27.50;;;;;;5064463;28;20218;-89
2021/05/26 12:38:18;;;;;;;5.13;1.40;;;19.70;27.70;;;;;;5060341;28;20245;-87
2021/05/26 12:40:46;;;;;;;1.10;1.00;;;19.50;28.00;;;;;;5058716;28;20194;-88
2021/05/26 12:43:26;;;;;;;1.73;1.17;;;19.30;28.00;;;;;;5059892;28;20237;-86
2021/05/26 12:45:53;;;;;;;1.50;1.10;;;19.50;28.90;;;;;;5063500;28;20214;-87
2021/05/26 12:48:19;;;;;;;3.70;1.48;;;19.40;28.50;;;;;;5068122;28;20221;-87
2021/05/26 12:50:46;;;;;;;2.53;1.23;;;19.30;31.50;;;;;;5068989;28;20212;-87
2021/05/26 12:53:15;;;;;;;2.13;1.10;;;19.40;31.20;;;;;;5069474;28;20238;-86
2021/05/26 12:55:42;;;;;;;2.30;1.30;;;19.20;29.30;;;;;;5069855;28;20292;-87
2021/05/26 12:58:14;;;;;;;2.95;1.45;;;19.10;29.60;;;;;;5069956;28;20281;-88
2021/05/26 13:00:42;;;;;;;2.28;1.52;;;18.90;30.20;;;;;;5053721;28;20657;-90
2021/05/26 13:03:10;;;;;;;3.22;1.33;;;18.90;31.20;;;;;;5062425;28;20206;-89
2021/05/26 13:05:38;;;;;;;2.50;1.33;;;19.00;31.20;;;;;;5064322;28;20548;-89
2021/05/26 13:08:13;;;;;;;2.53;1.20;;;19.10;31.30;;;;;;5062455;28;20237;-89
2021/05/26 13:10:51;;;;;;;5.13;1.45;;;19.10;31.30;;;;;;5053132;28;20202;-89
2021/05/26 13:13:21;;;;;;;3.35;1.30;;;19.30;29.70;;;;;;5060535;28;20190;-89
2021/05/26 13:15:58;;;;;;;4.43;1.33;;;19.20;31.40;;;;;;5060450;28;20244;-86
2021/05/26 13:18:27;;;;;;;3.38;1.70;;;19.20;31.40;;;;;;5052659;28;20193;-88
2021/05/26 13:20:55;;;;;;;2.38;1.25;;;19.00;31.20;;;;;;5066172;28;20232;-88
2021/05/26 13:23:21;;;;;;;6.88;1.65;;;18.90;32.80;;;;;;5067695;28;20230;-87
2021/05/26 13:25:52;;;;;;;6.03;1.80;;;19.00;33.00;;;;;;5069471;28;20288;-88
2021/05/26 13:28:20;;;;;;;7.13;1.77;;;19.00;33.50;;;;;;5069406;28;20198;-88
2021/05/26 13:30:47;;;;;;;6.30;1.88;;;18.70;34.80;;;;;;5063155;28;20201;-87
2021/05/26 13:33:14;;;;;;;4.82;1.80;;;18.70;36.20;;;;;;5058615;28;20272;-87
2021/05/26 13:36:18;;;;;;;5.63;2.10;;;18.60;37.40;;;;;;5070753;28;20213;-88
2021/05/26 13:38:45;;;;;;;7.40;2.20;;;18.60;37.30;;;;;;5061782;28;20198;-88
2021/05/26 13:41:12;;;;;;;3.85;1.98;;;18.70;38.20;;;;;;5071081;28;20202;-88
2021/05/26 13:43:39;;;;;;;4.95;1.90;;;18.80;38.50;;;;;;5073567;28;20205;-87
2021/05/26 13:46:05;;;;;;;3.45;1.80;;;18.50;38.20;;;;;;5072766;28;20205;-87
2021/05/26 13:48:32;;;;;;;6.97;2.03;;;18.20;40.50;;;;;;5072774;28;20284;-87
2021/05/26 13:50:58;;;;;;;6.85;2.00;;;18.20;40.40;;;;;;5070411;28;20638;-88
2021/05/26 13:53:25;;;;;;;8.35;1.88;;;18.30;40.40;;;;;;5064021;28;20265;-87
2021/05/26 13:55:51;;;;;;;7.60;2.10;;;18.70;39.50;;;;;;5051333;28;20290;-87
2021/05/26 13:58:18;;;;;;;3.67;2.25;;;19.00;39.40;;;;;;5057953;28;20210;-87
2021/05/26 14:01:10;;;;;;;3.47;2.00;;;19.20;38.40;;;;;;5071050;28;20236;-87
2021/05/26 14:03:37;;;;;;;3.88;1.92;;;19.00;38.40;;;;;;5061188;28;20289;-87
2021/05/26 14:06:04;;;;;;;3.92;2.30;;;19.00;38.90;;;;;;5070965;28;20186;-87
2021/05/26 14:08:30;;;;;;;6.43;2.00;;;19.10;38.70;;;;;;5056409;28;20257;-87
2021/05/26 14:10:58;;;;;;;2.63;1.80;;;18.90;38.20;;;;;;5050431;28;20191;-87
2021/05/26 14:13:25;;;;;;;5.75;2.17;;;19.00;38.00;;;;;;5050421;28;20253;-87
2021/05/26 14:15:55;;;;;;;3.45;2.10;;;18.90;38.30;;;;;;5051723;28;20254;-87
2021/05/26 14:18:22;;;;;;;4.85;2.00;;;18.60;39.70;;;;;;5070910;28;20248;-87
2021/05/26 14:20:55;;;;;;;4.45;1.80;;;18.50;40.70;;;;;;5072443;28;20250;-87
2021/05/26 14:23:21;;;;;;;6.03;2.10;;;18.30;40.50;;;;;;5057992;28;20225;-87